Alcove, NY

2:27 AM EDT on July 04, 2015 (GMT -0400)
Callanan's Corners | | Change Station
CLOSE
Current Station
Personal Weather Station
Location: Ravena, NY
Elevation: 387 ft
Nearby Weather Stations

Elev 387 ft 42.53 °N, 73.89 °W | Updated 2 minutes ago

Partly Cloudy
Partly Cloudy
55.5 °F
Feels Like 55.5 °F
N
0.0
Wind Variable Wind from SSW
Gusts 0.0 mph

Today
High -- | Low -- °F
--% Chance of Precip.
Yesterday
High -- | Low -- °F
Precip. -- in
5:23 AM 8:36 PM
Waning Gibbous, 94% visible
Pressure 29.98 in
Visibility 10.0 miles
Clouds Few 22000 ft
Mostly Cloudy 25000 ft
Dew Point 54 °F
Humidity 94%
Rainfall 0.00 in
Snow Depth Not available.
UV 0 out of 12
Pollen 5.20 out of 12
Air Quality Not available.
Flu Activity Not available.
METAR KALB 040551Z 00000KT 10SM FEW220 BKN250 16/11 A2998 RMK AO2 SLP150 BKN V OVC T01610106 10233 20161 51001

More Conditions Fewer Conditions

Pressure 29.98 in
Visibility 10.0 miles
Clouds Few 22000 ft
Mostly Cloudy 25000 ft
Dew Point 54 °F
Humidity 94%
Rainfall 0.00 in
Snow Depth Not available.
UV 0 out of 12
Pollen 5.20 out of 12
Air Quality Not available.
Flu Activity Not available.
METAR KALB 040551Z 00000KT 10SM FEW220 BKN250 16/11 A2998 RMK AO2 SLP150 BKN V OVC T01610106 10233 20161 51001

More Conditions Fewer Conditions

10-Day Weather Forecast

×

Almanac

Astronomy

Jul. 04, 2015 Rise Set
Actual Time
Civil Twilight
Nautical Twilight
Astronomical Twilight
Moon
Length of Visible Light
Length of Day
Tomorrow will be .
, % of the Moon is Illuminated

Today's Extremes

State Highs State Lows

Community

WunderPhotos

Upload Photos

1,834,926 photos uploaded!

WunderBlogs® & News

Nearby

Air Quality

  Air Quality AQ Index Pollutant
Not available.

Snow Depth

Station Depth Elevation

Earthquake Activity

City Distance Mag. Time & Date
Minimum magnitude displayed is 2.5.

Coastal Water Temperatures

Place Temperature

Stations

Nearby Weather Stations

Station Location Temp. Windchill Dew Point Humidity Wind Precip. Elev Updated Type